Lakeville, MN

8:49 PM CST on November 23, 2014 (GMT -0600)
Minneapolis-Saint Paul International | Change Station
CLOSE
Current Station
Airport
Location: Minneapolis,
Elevation: 837 ft
Nearby Weather Stations

Elev 837 ft 44.89 °N, 93.23 °W | Updated 56 minutes ago

Overcast
Overcast
38 °F
Feels Like 29 °F
N
15
Wind Variable Wind from WNW

Today
High -- | Low -- °F
--% Chance of Precip.
Yesterday
High -- | Low -- °F
Precip. -- in
7:20 AM 4:38 PM
Waxing Crescent, 3% visible
Pressure 29.38 in
Visibility 10.0 miles
Clouds Few 1200 ft
Scattered Clouds 3000 ft
Overcast 3700 ft
Windchill 29 °F
Dew Point 35 °F
Humidity 89%
Rainfall 0.00 in
Snow Depth Not available.
UV 0 out of 12
Pollen .10 out of 12
Air Quality Not available.
Flu Activity Not available.
METAR KMSP 240153Z 30013KT 10SM -RA FEW012 SCT030 OVC037 03/02 A2937 RMK AO2 RAB18 SLP949 P0000 T00330017

More Conditions Fewer Conditions

Pressure 29.38 in
Visibility 10.0 miles
Clouds Few 1200 ft
Scattered Clouds 3000 ft
Overcast 3700 ft
Windchill 29 °F
Dew Point 35 °F
Humidity 89%
Rainfall 0.00 in
Snow Depth Not available.
UV 0 out of 12
Pollen .10 out of 12
Air Quality Not available.
Flu Activity Not available.
METAR KMSP 240153Z 30013KT 10SM -RA FEW012 SCT030 OVC037 03/02 A2937 RMK AO2 RAB18 SLP949 P0000 T00330017

More Conditions Fewer Conditions

Nowcast | as of 8:00 PM CST on November 23, 2014

A band of light rain...drizzle and fog is falling across parts of south central...southeast and east central Minnesota into western Wisconsin. The rain area is located from Duluth Superior south along I-35 to the Twin City Metro area...then south towards Le Sueur...Faribault... Mankato...Owatonna...Fairmont and Albert Lea. The trailing edge is moving towards western Wisconsin between now and midnight. Light accumulations of a few hundreths up to a tenth inch of rain are expected.

×

10-Day Weather Forecast

Almanac

Astronomy

Nov. 23, 2014 Rise Set
Actual Time
Civil Twilight
Nautical Twilight
Astronomical Twilight
Moon
Length of Visible Light
Length of Day
Tomorrow will be .
, % of the Moon is Illuminated

Today's Extremes

State Highs State Lows

Community

WunderPhotos

Upload Photos

1,773,257 photos uploaded!

WunderBlogs® & News

Nearby

Air Quality

  Air Quality AQ Index Pollutant
Not available.

Snow Depth

Station Depth Elevation

Earthquake Activity

City Distance Mag. Time & Date
Minimum magnitude displayed is 2.5.

Coastal Water Temperatures

Place Temperature

Nearby Weather Stations